createdAt,value
2018-07-20T00:01:17.881Z,53.40
2018-07-20T00:03:47.398Z,53.50
2018-07-20T00:06:16.854Z,53.60
2018-07-20T00:08:46.472Z,53.70
2018-07-20T00:11:15.884Z,53.70
2018-07-20T00:13:45.245Z,53.80
2018-07-20T00:16:15.123Z,53.90
2018-07-20T00:18:44.594Z,54.00
2018-07-20T00:21:14.081Z,54.00
2018-07-20T00:26:12.555Z,54.10
2018-07-20T00:28:42.069Z,54.20
2018-07-20T00:31:11.445Z,54.20
2018-07-20T00:33:40.839Z,54.30
2018-07-20T00:36:10.198Z,54.40
2018-07-20T00:38:39.675Z,54.50
2018-07-20T00:41:09.136Z,54.60
2018-07-20T00:43:39.146Z,54.70
2018-07-20T00:46:08.638Z,54.60
2018-07-20T00:48:37.985Z,54.70
2018-07-20T00:51:07.614Z,54.80
2018-07-20T00:53:37.000Z,54.70
2018-07-20T00:56:06.457Z,54.80
2018-07-20T00:58:35.811Z,54.90
2018-07-20T01:01:05.162Z,55.10
2018-07-20T01:03:34.558Z,55.10
2018-07-20T01:06:04.107Z,55.20
2018-07-20T01:08:33.516Z,55.30
2018-07-20T01:11:02.860Z,55.30
2018-07-20T01:13:32.230Z,55.40
2018-07-20T01:16:01.590Z,55.40
2018-07-20T01:18:31.609Z,55.40
2018-07-20T01:21:01.008Z,55.50
2018-07-20T01:23:30.949Z,55.60
2018-07-20T01:26:00.411Z,55.60
2018-07-20T01:28:29.947Z,55.60
2018-07-20T01:30:59.494Z,55.70
2018-07-20T01:33:28.784Z,55.70
2018-07-20T01:35:58.302Z,55.90
2018-07-20T01:38:27.711Z,55.90
2018-07-20T01:43:26.213Z,56.10
2018-07-20T01:45:55.610Z,56.20
2018-07-20T01:48:25.163Z,56.30
2018-07-20T01:50:54.624Z,56.40
2018-07-20T01:55:53.333Z,56.40
2018-07-20T01:58:22.905Z,56.40
2018-07-20T02:00:53.350Z,56.40
2018-07-20T02:03:22.757Z,56.50
2018-07-20T02:05:52.170Z,56.50
2018-07-20T02:08:21.729Z,56.60
2018-07-20T02:11:00.783Z,56.60
2018-07-20T02:13:30.305Z,56.70
2018-07-20T02:15:59.789Z,56.70
2018-07-20T02:18:29.152Z,56.80
2018-07-20T02:20:58.577Z,56.80
2018-07-20T02:23:28.164Z,56.90
2018-07-20T02:25:58.103Z,56.90
2018-07-20T02:28:27.480Z,56.90
2018-07-20T02:30:56.838Z,57.00
2018-07-20T02:33:26.310Z,57.00
2018-07-20T02:35:55.826Z,57.00
2018-07-20T02:38:26.219Z,57.10
2018-07-20T02:40:55.626Z,57.10
2018-07-20T02:43:25.642Z,57.10
2018-07-20T02:45:55.064Z,57.20
2018-07-20T02:48:24.962Z,57.20
2018-07-20T02:50:55.094Z,57.20
2018-07-20T02:53:25.208Z,57.30
2018-07-20T02:55:54.536Z,57.40
2018-07-20T02:58:24.394Z,57.50
2018-07-20T03:00:53.709Z,57.50
2018-07-20T03:03:23.163Z,57.50
2018-07-20T03:05:52.576Z,57.50
2018-07-20T03:08:21.869Z,57.50
2018-07-20T03:10:51.293Z,57.60
2018-07-20T03:13:20.750Z,57.60
2018-07-20T03:15:50.245Z,57.70
2018-07-20T03:18:19.633Z,57.70
2018-07-20T03:20:49.046Z,57.80
2018-07-20T03:23:18.520Z,57.90
2018-07-20T03:25:47.918Z,57.90
2018-07-20T03:28:17.349Z,58.00
2018-07-20T03:30:46.776Z,58.10
2018-07-20T03:33:16.133Z,58.10
2018-07-20T03:35:45.630Z,58.20
2018-07-20T03:38:15.060Z,58.20
2018-07-20T03:40:44.460Z,58.30
2018-07-20T03:43:14.562Z,58.30
2018-07-20T03:45:43.962Z,58.30
2018-07-20T03:48:13.358Z,58.30
2018-07-20T03:50:42.747Z,58.30
2018-07-20T03:53:12.177Z,58.30
2018-07-20T03:55:41.986Z,58.30
2018-07-20T03:58:11.330Z,58.30
2018-07-20T04:00:40.795Z,58.40
2018-07-20T04:03:10.242Z,58.50
2018-07-20T04:05:39.574Z,58.60
2018-07-20T04:08:08.917Z,58.70
2018-07-20T04:10:38.379Z,58.70
2018-07-20T04:13:08.394Z,58.80
2018-07-20T04:15:37.734Z,58.90
2018-07-20T04:18:07.338Z,58.90
2018-07-20T04:20:36.780Z,58.90
2018-07-20T04:23:06.152Z,58.90
2018-07-20T04:25:35.544Z,59.00
2018-07-20T04:28:04.907Z,59.10
2018-07-20T04:30:34.395Z,59.20
2018-07-20T04:33:03.877Z,59.20
2018-07-20T04:35:33.256Z,59.20
2018-07-20T04:38:02.692Z,59.40
2018-07-20T04:40:32.173Z,59.40
2018-07-20T04:43:01.568Z,59.50
2018-07-20T04:45:31.073Z,59.50
2018-07-20T04:48:00.519Z,59.70
2018-07-20T04:50:29.909Z,59.70
2018-07-20T04:52:59.385Z,59.80
2018-07-20T04:55:29.033Z,59.90
2018-07-20T04:57:58.483Z,59.90
2018-07-20T05:00:27.981Z,60.00
2018-07-20T05:02:57.354Z,60.00
2018-07-20T05:05:26.846Z,60.20
2018-07-20T05:07:56.228Z,60.20
2018-07-20T05:10:25.600Z,60.30
2018-07-20T05:12:55.036Z,60.40
2018-07-20T05:15:24.433Z,60.40
2018-07-20T05:17:53.794Z,60.50
2018-07-20T05:20:23.199Z,60.60
2018-07-20T05:22:52.594Z,60.80
2018-07-20T05:25:21.986Z,60.90
2018-07-20T05:27:51.405Z,61.00
2018-07-20T05:30:20.872Z,61.20
2018-07-20T05:32:50.270Z,61.40
2018-07-20T05:35:19.569Z,61.50
2018-07-20T05:37:48.953Z,61.60
2018-07-20T05:40:18.392Z,61.70
2018-07-20T05:42:47.792Z,61.80
2018-07-20T05:50:15.361Z,61.60
2018-07-20T05:52:44.995Z,61.50
2018-07-20T05:57:43.549Z,61.20
2018-07-20T06:00:12.897Z,61.00
2018-07-20T06:02:43.063Z,60.90
2018-07-20T06:05:12.481Z,60.60
2018-07-20T06:07:41.885Z,60.50
2018-07-20T06:10:11.337Z,60.20
2018-07-20T06:12:40.711Z,60.00
2018-07-20T06:15:10.078Z,59.80
2018-07-20T06:17:39.481Z,59.60
2018-07-20T06:20:10.070Z,59.40
2018-07-20T06:22:40.522Z,59.20
2018-07-20T06:25:09.878Z,59.10
2018-07-20T06:27:39.218Z,59.00
2018-07-20T06:30:08.814Z,58.60
2018-07-20T06:32:38.583Z,58.40
2018-07-20T06:35:08.671Z,58.20
2018-07-20T06:37:38.065Z,58.00
2018-07-20T06:40:07.408Z,57.90
2018-07-20T06:42:36.742Z,57.80
2018-07-20T06:45:07.138Z,57.60
2018-07-20T06:47:37.218Z,57.50
2018-07-20T06:50:10.658Z,57.30
2018-07-20T06:52:40.050Z,57.10
2018-07-20T06:55:10.101Z,56.90
2018-07-20T06:57:39.529Z,56.60
2018-07-20T07:00:09.698Z,56.40
2018-07-20T07:02:39.160Z,56.10
2018-07-20T07:05:10.563Z,55.80
2018-07-20T07:07:40.201Z,55.50
2018-07-20T07:10:10.300Z,55.10
2018-07-20T07:15:08.815Z,54.70
2018-07-20T07:17:38.233Z,54.50
2018-07-20T07:20:07.737Z,54.40
2018-07-20T07:22:37.117Z,54.10
2018-07-20T07:25:06.684Z,53.90
2018-07-20T07:27:36.135Z,53.60
2018-07-20T07:30:06.003Z,53.30
2018-07-20T07:32:35.407Z,53.00
2018-07-20T07:35:04.815Z,52.60
2018-07-20T07:37:34.385Z,52.40
2018-07-20T07:40:03.953Z,52.10
2018-07-20T07:42:33.431Z,51.80
2018-07-20T07:45:03.257Z,51.60
2018-07-20T07:47:32.626Z,51.30
2018-07-20T07:50:01.954Z,51.00
2018-07-20T07:52:31.403Z,50.80
2018-07-20T07:55:00.868Z,50.40
2018-07-20T07:57:30.403Z,49.90
2018-07-20T07:59:59.754Z,49.60
2018-07-20T08:02:29.146Z,49.30
2018-07-20T08:04:58.477Z,49.00
2018-07-20T08:07:27.956Z,48.80
2018-07-20T08:09:57.594Z,48.60
2018-07-20T08:12:26.893Z,48.40
2018-07-20T08:14:56.274Z,48.00
2018-07-20T08:17:25.688Z,47.60
2018-07-20T08:19:55.072Z,47.20
2018-07-20T08:22:24.502Z,46.90
2018-07-20T08:24:53.909Z,46.50
2018-07-20T08:27:23.365Z,46.10
2018-07-20T08:29:52.906Z,45.90
2018-07-20T08:32:22.273Z,45.60
2018-07-20T08:34:51.716Z,45.40
2018-07-20T08:37:21.115Z,45.10
2018-07-20T08:39:50.666Z,44.80
2018-07-20T08:42:20.095Z,44.50
2018-07-20T08:44:49.573Z,44.20
2018-07-20T08:47:18.965Z,43.90
2018-07-20T08:49:48.361Z,43.50
2018-07-20T08:52:18.128Z,43.00
2018-07-20T08:54:47.528Z,42.60
2018-07-20T08:57:16.980Z,42.10
2018-07-20T08:59:46.350Z,41.60
2018-07-20T09:02:15.721Z,41.10
2018-07-20T09:04:45.138Z,40.70
2018-07-20T09:07:14.542Z,40.10
2018-07-20T09:09:43.954Z,39.50
2018-07-20T09:12:13.326Z,38.90
2018-07-20T09:14:43.041Z,38.30
2018-07-20T09:17:13.038Z,38.00
2018-07-20T09:19:42.456Z,37.80
2018-07-20T09:22:11.799Z,37.40
2018-07-20T09:24:42.299Z,36.90
2018-07-20T09:27:11.770Z,36.60
2018-07-20T09:29:41.126Z,36.30
2018-07-20T09:32:10.560Z,36.00
2018-07-20T09:34:39.909Z,35.80
2018-07-20T09:37:09.296Z,35.50
2018-07-20T09:39:38.655Z,35.20
2018-07-20T09:42:08.211Z,35.00
2018-07-20T09:44:37.736Z,34.70
2018-07-20T09:47:07.235Z,34.60
2018-07-20T09:49:36.565Z,34.50
2018-07-20T09:54:35.405Z,34.00
2018-07-20T09:57:04.883Z,33.70
2018-07-20T09:59:34.380Z,33.60
2018-07-20T10:02:03.754Z,33.40
2018-07-20T10:04:33.121Z,33.30
2018-07-20T10:07:02.475Z,33.20
2018-07-20T10:09:31.907Z,32.80
2018-07-20T10:12:01.302Z,32.50
2018-07-20T10:17:00.553Z,31.70
2018-07-20T10:19:29.872Z,31.40
2018-07-20T10:22:00.633Z,31.20
2018-07-20T10:24:30.133Z,30.80
2018-07-20T10:26:59.973Z,30.70
2018-07-20T10:31:58.462Z,30.10
2018-07-20T10:34:27.814Z,29.90
2018-07-20T10:36:57.167Z,29.60
2018-07-20T10:41:55.724Z,29.10
2018-07-20T10:44:25.866Z,28.90
2018-07-20T10:46:56.073Z,29.30
2018-07-20T10:49:25.428Z,28.70
2018-07-20T10:51:54.888Z,28.70
2018-07-20T10:54:24.386Z,28.40
2018-07-20T10:56:53.898Z,28.30
2018-07-20T10:59:23.840Z,28.20
2018-07-20T11:01:53.339Z,28.10
2018-07-20T11:04:23.361Z,28.00
2018-07-20T11:09:22.748Z,27.50
2018-07-20T11:11:52.196Z,27.20
2018-07-20T11:14:21.545Z,27.10
2018-07-20T11:16:50.921Z,27.10
2018-07-20T11:19:20.282Z,26.90
2018-07-20T11:21:49.728Z,26.60
2018-07-20T11:24:19.274Z,26.50
2018-07-20T11:26:48.647Z,26.40
2018-07-20T11:29:18.019Z,26.30
2018-07-20T11:31:47.397Z,26.30
2018-07-20T11:34:16.809Z,26.20
2018-07-20T11:36:46.401Z,26.10
2018-07-20T11:39:16.281Z,25.90
2018-07-20T11:41:45.830Z,25.60
2018-07-20T11:44:17.079Z,25.30
2018-07-20T11:49:16.371Z,25.00
2018-07-20T11:51:46.507Z,25.10
2018-07-20T11:54:17.478Z,25.30
2018-07-20T11:56:46.997Z,25.10
2018-07-20T11:59:16.518Z,25.00
2018-07-20T12:01:46.557Z,24.90
2018-07-20T12:04:16.051Z,24.60
2018-07-20T12:06:46.145Z,24.50
2018-07-20T12:09:15.619Z,24.40
2018-07-20T12:11:45.146Z,24.30
2018-07-20T12:14:14.897Z,24.20
2018-07-20T12:16:44.538Z,24.10
2018-07-20T12:19:14.740Z,24.00
2018-07-20T12:21:45.237Z,24.00
2018-07-20T12:24:17.172Z,23.80
2018-07-20T12:26:46.510Z,23.50
2018-07-20T12:29:16.485Z,23.30
2018-07-20T12:31:46.158Z,23.00
2018-07-20T12:34:15.502Z,22.70
2018-07-20T12:36:45.760Z,22.50
2018-07-20T12:39:15.167Z,22.40
2018-07-20T12:41:44.682Z,22.10
2018-07-20T12:44:15.165Z,21.70
2018-07-20T12:46:44.998Z,21.20
2018-07-20T12:49:14.609Z,20.80
2018-07-20T12:51:44.716Z,20.60
2018-07-20T12:54:15.057Z,20.40
2018-07-20T12:56:44.425Z,20.40
2018-07-20T12:59:14.775Z,20.20
2018-07-20T13:01:44.899Z,20.20
2018-07-20T13:04:14.659Z,20.10
2018-07-20T13:06:44.130Z,20.10
2018-07-20T13:09:13.940Z,20.20
2018-07-20T13:11:44.150Z,20.40
2018-07-20T13:14:13.829Z,20.60
2018-07-20T13:16:43.577Z,20.70
2018-07-20T13:19:13.732Z,20.80
2018-07-20T13:21:44.088Z,20.80
2018-07-20T13:24:13.483Z,20.90
2018-07-20T13:26:42.950Z,20.80
2018-07-20T13:29:12.302Z,20.80
2018-07-20T13:31:42.494Z,20.70
2018-07-20T13:34:13.154Z,20.50
2018-07-20T13:36:42.616Z,20.50
2018-07-20T13:39:12.616Z,20.60
2018-07-20T13:41:42.308Z,20.70
2018-07-20T13:44:11.763Z,20.70
2018-07-20T13:46:41.100Z,20.50
2018-07-20T13:49:10.460Z,20.30
2018-07-20T13:51:39.840Z,20.20
2018-07-20T13:54:10.625Z,20.10
2018-07-20T13:56:40.051Z,19.90
2018-07-20T13:59:09.394Z,19.50
2018-07-20T14:01:38.745Z,19.20
2018-07-20T14:04:08.724Z,19.00
2018-07-20T14:06:38.145Z,18.90
2018-07-20T14:09:09.891Z,18.90
2018-07-20T14:11:40.299Z,19.00
2018-07-20T14:14:10.307Z,19.30
2018-07-20T14:16:40.470Z,19.30
2018-07-20T14:19:09.820Z,19.40
2018-07-20T14:21:39.215Z,19.60
2018-07-20T14:24:08.571Z,19.80
2018-07-20T14:26:38.136Z,19.90
2018-07-20T14:29:07.600Z,20.00
2018-07-20T14:31:37.191Z,20.30
2018-07-20T14:34:06.648Z,20.40
2018-07-20T14:36:35.998Z,20.50
2018-07-20T14:39:09.953Z,20.60
2018-07-20T14:41:39.442Z,20.90
2018-07-20T14:44:08.780Z,21.20
2018-07-20T14:46:38.778Z,21.60
2018-07-20T14:49:08.218Z,21.80
2018-07-20T14:51:37.674Z,22.00
2018-07-20T14:54:07.214Z,22.20
2018-07-20T14:56:36.606Z,22.60
2018-07-20T14:59:06.053Z,22.90
2018-07-20T15:01:35.487Z,23.20
2018-07-20T15:04:04.829Z,23.40
2018-07-20T15:06:34.366Z,23.60
2018-07-20T15:09:05.142Z,23.90
2018-07-20T15:11:35.330Z,24.10
2018-07-20T15:14:04.746Z,24.30
2018-07-20T15:16:34.155Z,24.50
2018-07-20T15:19:03.580Z,24.40
2018-07-20T15:21:34.466Z,24.40
2018-07-20T15:26:33.640Z,24.20
2018-07-20T15:29:09.310Z,24.10
2018-07-20T15:31:38.840Z,23.70
2018-07-20T15:34:08.782Z,23.50
2018-07-20T15:36:39.036Z,23.40
2018-07-20T15:39:12.283Z,22.90
2018-07-20T15:41:42.050Z,22.30
2018-07-20T15:44:11.512Z,21.70
2018-07-20T15:46:40.973Z,21.20
2018-07-20T15:49:10.313Z,20.80
2018-07-20T15:53:35.206Z,20.40
2018-07-20T15:54:09.753Z,20.00
2018-07-20T15:56:39.221Z,19.70
2018-07-20T15:59:08.517Z,19.50
2018-07-20T16:01:37.993Z,19.30
2018-07-20T16:04:07.499Z,19.10
2018-07-20T16:06:36.865Z,18.80
2018-07-20T16:09:10.297Z,18.60
2018-07-20T16:11:39.856Z,18.50
2018-07-20T16:14:09.190Z,18.30
2018-07-20T16:16:39.169Z,18.20
2018-07-20T16:19:08.612Z,18.00
2018-07-20T16:21:38.000Z,17.80
2018-07-20T16:26:37.390Z,17.60
2018-07-20T16:29:06.771Z,17.50
2018-07-20T16:31:36.208Z,17.50
2018-07-20T16:34:05.686Z,17.40
2018-07-20T16:36:35.105Z,17.60
2018-07-20T16:39:06.419Z,17.60
2018-07-20T16:41:35.883Z,17.60
2018-07-20T16:44:05.345Z,17.60
2018-07-20T16:46:35.170Z,17.60
2018-07-20T16:49:04.597Z,17.70
2018-07-20T16:51:33.949Z,17.80
2018-07-20T16:54:04.042Z,18.00
2018-07-20T16:59:02.662Z,18.30
2018-07-20T17:04:01.200Z,18.60
2018-07-20T17:06:30.598Z,18.70
2018-07-20T17:09:00.032Z,18.80
2018-07-20T17:11:29.362Z,18.90
2018-07-20T17:13:58.806Z,19.00
2018-07-20T17:16:28.282Z,19.10
2018-07-20T17:18:57.736Z,19.10
2018-07-20T17:21:27.140Z,19.30
2018-07-20T17:23:56.509Z,19.60
2018-07-20T17:26:25.949Z,19.90
2018-07-20T17:28:55.477Z,20.30
2018-07-20T17:33:54.010Z,20.90
2018-07-20T17:36:23.464Z,21.20
2018-07-20T17:38:53.657Z,21.60
2018-07-20T17:41:23.007Z,22.00
2018-07-20T17:46:23.237Z,22.80
2018-07-20T17:51:22.083Z,24.10
2018-07-20T17:53:51.954Z,24.80
2018-07-20T17:56:21.951Z,26.00
2018-07-20T17:58:51.351Z,26.10
2018-07-20T18:01:20.713Z,26.60
2018-07-20T18:03:50.647Z,27.30
2018-07-20T18:06:20.047Z,27.90
2018-07-20T18:08:49.966Z,28.40
2018-07-20T18:11:19.445Z,28.80
2018-07-20T18:13:49.373Z,29.20
2018-07-20T18:16:19.717Z,29.40
2018-07-20T18:18:49.235Z,29.80
2018-07-20T18:21:19.005Z,30.10
2018-07-20T18:23:50.249Z,30.50
2018-07-20T18:26:19.643Z,30.90
2018-07-20T18:28:49.138Z,31.40
2018-07-20T18:31:18.607Z,32.00
2018-07-20T18:33:48.108Z,32.50
2018-07-20T18:36:17.458Z,32.90
2018-07-20T18:38:46.928Z,33.40
2018-07-20T18:41:16.391Z,34.20
2018-07-20T18:43:45.948Z,34.70
2018-07-20T18:48:44.482Z,35.60
2018-07-20T18:51:14.946Z,36.20
2018-07-20T18:53:44.434Z,36.50
2018-07-20T18:56:14.363Z,36.80
2018-07-20T18:58:44.382Z,37.10
2018-07-20T19:01:15.212Z,37.50
2018-07-20T19:03:44.614Z,37.90
2018-07-20T19:06:14.101Z,38.10
2018-07-20T19:08:43.560Z,38.00
2018-07-20T19:11:13.146Z,38.10
2018-07-20T19:13:42.682Z,38.40
2018-07-20T19:16:12.178Z,38.80
2018-07-20T19:18:41.803Z,39.20
2018-07-20T19:21:11.938Z,39.40
2018-07-20T19:23:42.411Z,39.60
2018-07-20T19:26:12.029Z,40.00
2018-07-20T19:28:41.527Z,40.20
2018-07-20T19:31:11.783Z,40.50
2018-07-20T19:33:42.092Z,40.90
2018-07-20T19:36:11.586Z,41.10
2018-07-20T19:38:40.995Z,41.30
2018-07-20T19:41:10.305Z,41.40
2018-07-20T19:46:08.778Z,41.50
2018-07-20T19:48:38.229Z,41.70
2018-07-20T19:51:07.877Z,42.00
2018-07-20T19:53:37.418Z,42.40
2018-07-20T20:01:05.156Z,43.10
2018-07-20T20:03:35.297Z,43.20
2018-07-20T20:06:04.844Z,43.20
2018-07-20T20:08:34.161Z,43.00
2018-07-20T20:11:03.598Z,42.50
2018-07-20T20:13:33.156Z,42.00
2018-07-20T20:16:02.666Z,41.80
2018-07-20T20:18:32.826Z,41.60
2018-07-20T20:21:02.223Z,41.50
2018-07-20T20:23:31.800Z,41.30
2018-07-20T20:26:01.243Z,41.20
2018-07-20T20:28:30.775Z,41.20
2018-07-20T20:31:00.273Z,41.10
2018-07-20T20:33:29.703Z,41.20
2018-07-20T20:35:59.264Z,41.10
2018-07-20T20:38:28.589Z,41.20
2018-07-20T20:40:58.795Z,41.50
2018-07-20T20:43:28.877Z,41.70
2018-07-20T20:45:58.286Z,42.30
2018-07-20T20:48:27.693Z,43.10
2018-07-20T20:50:57.183Z,44.40
2018-07-20T20:53:26.679Z,45.40
2018-07-20T20:55:56.063Z,46.20
2018-07-20T20:58:25.449Z,47.60
2018-07-20T21:00:54.838Z,48.60
2018-07-20T21:03:24.817Z,49.60
2018-07-20T21:05:54.279Z,50.50
2018-07-20T21:13:22.840Z,51.90
2018-07-20T21:15:52.717Z,52.50
2018-07-20T21:18:22.118Z,53.20
2018-07-20T21:20:51.502Z,54.00
2018-07-20T21:23:21.392Z,54.60
2018-07-20T21:25:50.794Z,55.40
2018-07-20T21:28:20.215Z,56.20
2018-07-20T21:30:49.576Z,56.80
2018-07-20T21:33:18.999Z,57.50
2018-07-20T21:35:48.441Z,58.00
2018-07-20T21:38:17.861Z,58.40
2018-07-20T21:40:47.356Z,58.70
2018-07-20T21:45:45.915Z,60.10
2018-07-20T21:48:15.306Z,59.70
2018-07-20T21:50:44.894Z,60.00
2018-07-20T21:53:14.398Z,60.20
2018-07-20T21:55:44.021Z,60.40
2018-07-20T21:58:13.550Z,60.90
2018-07-20T22:00:42.973Z,61.10
2018-07-20T22:03:12.887Z,61.50
2018-07-20T22:05:42.339Z,61.70
2018-07-20T22:08:11.724Z,62.10
2018-07-20T22:10:41.231Z,62.50
2018-07-20T22:13:10.743Z,63.10
2018-07-20T22:15:40.219Z,63.40
2018-07-20T22:20:38.721Z,63.70
2018-07-20T22:23:08.656Z,64.20
2018-07-20T22:25:38.135Z,64.40
2018-07-20T22:28:07.737Z,64.70
2018-07-20T22:30:37.257Z,65.00
2018-07-20T22:35:36.078Z,65.60
2018-07-20T22:38:05.644Z,65.90
2018-07-20T22:40:35.096Z,66.30
2018-07-20T22:43:04.573Z,66.30
2018-07-20T22:45:34.603Z,66.40
2018-07-20T22:48:04.094Z,66.60
2018-07-20T22:50:34.199Z,67.10
2018-07-20T22:53:04.090Z,67.20
2018-07-20T22:55:35.559Z,67.20
2018-07-20T23:00:34.821Z,67.50
2018-07-20T23:03:04.351Z,67.50
2018-07-20T23:05:34.972Z,67.70
2018-07-20T23:08:05.552Z,67.80
2018-07-20T23:13:04.148Z,68.00
2018-07-20T23:15:34.925Z,68.10
2018-07-20T23:18:04.571Z,68.20
2018-07-20T23:20:34.053Z,68.20
2018-07-20T23:23:03.912Z,68.30
2018-07-20T23:25:33.429Z,68.40
2018-07-20T23:28:02.978Z,68.50
2018-07-20T23:30:33.207Z,68.50
2018-07-20T23:33:03.439Z,68.50
2018-07-20T23:35:33.357Z,68.60
2018-07-20T23:38:02.791Z,68.70
2018-07-20T23:40:33.019Z,68.80
2018-07-20T23:43:03.145Z,68.70
2018-07-20T23:45:32.567Z,68.70
2018-07-20T23:48:02.061Z,68.70
2018-07-20T23:50:31.555Z,68.70
2018-07-20T23:53:01.498Z,68.70
2018-07-20T23:55:30.933Z,68.90
2018-07-20T23:58:00.503Z,68.90
